createdAt,value
2023-04-15T00:04:46.984Z,25.58
2023-04-15T00:10:31.574Z,25.65
2023-04-15T00:16:18.422Z,25.71
2023-04-15T00:22:01.555Z,25.73
2023-04-15T00:27:49.247Z,25.65
2023-04-15T00:33:31.596Z,25.72
2023-04-15T00:38:44.294Z,25.82
2023-04-15T00:44:32.959Z,25.85
2023-04-15T00:50:18.738Z,25.88
2023-04-15T00:56:05.092Z,25.82
2023-04-15T01:01:53.249Z,26.03
2023-04-15T01:07:10.056Z,25.99
2023-04-15T01:13:01.640Z,26.07
2023-04-15T01:18:10.529Z,26.09
2023-04-15T01:23:20.250Z,26.09
2023-04-15T01:28:45.396Z,26.16
2023-04-15T01:34:02.974Z,26.11
2023-04-15T01:39:52.573Z,25.89
2023-04-15T01:45:19.718Z,26.22
2023-04-15T01:50:55.417Z,26.04
2023-04-15T01:56:48.999Z,25.64
2023-04-15T02:01:59.774Z,26.01
2023-04-15T02:07:42.206Z,25.93
2023-04-15T02:13:12.706Z,25.72
2023-04-15T02:18:35.109Z,25.59
2023-04-15T02:24:25.547Z,25.71
2023-04-15T02:29:15.075Z,25.60
2023-04-15T02:34:22.956Z,25.87
2023-04-15T02:39:30.479Z,25.89
2023-04-15T02:44:37.752Z,25.98
2023-04-15T02:49:48.073Z,25.87
2023-04-15T02:54:55.519Z,25.15
2023-04-15T03:00:02.855Z,25.91
2023-04-15T03:05:10.273Z,25.17
2023-04-15T03:10:18.471Z,26.07
2023-04-15T03:15:25.774Z,25.96
2023-04-15T03:20:33.137Z,26.00
2023-04-15T03:25:40.305Z,26.48
2023-04-15T03:30:47.523Z,26.01
2023-04-15T03:35:54.820Z,26.47
2023-04-15T03:41:02.098Z,26.38
2023-04-15T03:46:09.337Z,25.92
2023-04-15T03:51:16.532Z,26.54
2023-04-15T03:56:23.731Z,26.18
2023-04-15T04:01:31.006Z,26.62
2023-04-15T04:06:38.306Z,26.55
2023-04-15T04:11:45.577Z,26.36
2023-04-15T04:16:52.817Z,26.66
2023-04-15T04:21:59.973Z,26.60
2023-04-15T04:27:07.215Z,26.22
2023-04-15T04:32:14.542Z,26.45
2023-04-15T04:37:21.713Z,26.73
2023-04-15T04:42:28.880Z,26.63
2023-04-15T04:47:36.150Z,27.00
2023-04-15T04:52:43.352Z,26.63
2023-04-15T04:57:50.544Z,26.61
2023-04-15T05:02:57.932Z,26.81
2023-04-15T05:08:05.305Z,26.90
2023-04-15T05:13:12.580Z,26.75
2023-04-15T05:18:19.828Z,26.63
2023-04-15T05:23:27.079Z,26.85
2023-04-15T05:28:34.382Z,26.82
2023-04-15T05:33:42.024Z,27.11
2023-04-15T05:38:49.545Z,26.76
2023-04-15T05:44:06.125Z,26.78
2023-04-15T05:49:13.954Z,26.89
2023-04-15T05:54:21.389Z,26.89
2023-04-15T05:59:29.075Z,26.82
2023-04-15T06:04:44.882Z,27.05
2023-04-15T06:09:52.445Z,27.31
2023-04-15T06:15:07.515Z,26.89
2023-04-15T06:20:15.009Z,26.92
2023-04-15T06:25:57.975Z,27.01
2023-04-15T06:31:08.720Z,27.10
2023-04-15T06:36:56.387Z,27.40
2023-04-15T06:42:12.052Z,27.32
2023-04-15T06:47:37.135Z,27.34
2023-04-15T06:52:32.018Z,26.94
2023-04-15T06:57:39.323Z,26.94
2023-04-15T07:02:46.687Z,27.25
2023-04-15T07:07:54.111Z,26.99
2023-04-15T07:13:11.248Z,27.37
2023-04-15T07:18:53.679Z,27.39
2023-04-15T07:24:01.141Z,27.37
2023-04-15T07:29:16.272Z,27.60
2023-04-15T07:35:05.665Z,27.27
2023-04-15T07:40:28.325Z,27.37
2023-04-15T07:45:36.087Z,27.39
2023-04-15T07:51:02.290Z,26.97
2023-04-15T07:56:09.974Z,27.27
2023-04-15T08:01:52.553Z,26.92
2023-04-15T08:07:39.321Z,27.40
2023-04-15T08:12:46.589Z,26.97
2023-04-15T08:17:54.117Z,27.39
2023-04-15T08:23:06.267Z,27.23
2023-04-15T08:28:28.942Z,27.53
2023-04-15T08:33:36.289Z,27.78
2023-04-15T08:38:43.455Z,28.73
2023-04-15T08:43:50.715Z,28.38
2023-04-15T08:48:57.986Z,28.26
2023-04-15T08:54:05.092Z,28.15
2023-04-15T08:59:12.278Z,27.92
2023-04-15T09:04:19.672Z,27.71
2023-04-15T09:09:26.652Z,27.63
2023-04-15T09:14:33.914Z,27.38
2023-04-15T09:19:42.723Z,27.02
2023-04-15T09:24:49.884Z,27.02
2023-04-15T09:29:57.103Z,26.92
2023-04-15T09:35:04.281Z,26.91
2023-04-15T09:40:11.443Z,26.93
2023-04-15T09:45:18.637Z,26.83
2023-04-15T09:50:25.840Z,26.77
2023-04-15T09:55:32.995Z,26.61
2023-04-15T10:00:40.309Z,26.59
2023-04-15T10:05:48.806Z,26.51
2023-04-15T10:10:55.969Z,26.36
2023-04-15T10:16:03.220Z,26.39
2023-04-15T10:21:10.515Z,26.34
2023-04-15T10:26:17.775Z,26.42
2023-04-15T10:31:24.925Z,26.21
2023-04-15T10:36:32.116Z,24.79
2023-04-15T10:41:39.299Z,25.60
2023-04-15T10:46:46.625Z,25.67
2023-04-15T10:51:53.815Z,25.10
2023-04-15T10:57:00.946Z,25.31
2023-04-15T11:02:08.327Z,25.50
2023-04-15T11:07:15.543Z,25.59
2023-04-15T11:12:22.709Z,24.88
2023-04-15T11:17:30.024Z,24.38
2023-04-15T11:22:37.176Z,24.65
2023-04-15T11:27:44.333Z,23.96
2023-04-15T11:32:51.541Z,24.32
2023-04-15T11:37:58.745Z,23.91
2023-04-15T11:43:06.006Z,23.83
2023-04-15T11:48:13.252Z,23.94
2023-04-15T11:53:20.513Z,23.95
2023-04-15T11:58:27.760Z,23.90
2023-04-15T12:03:35.078Z,23.96
2023-04-15T12:08:42.266Z,23.85
2023-04-15T12:13:49.482Z,23.47
2023-04-15T12:18:56.708Z,23.83
2023-04-15T12:24:04.366Z,23.43
2023-04-15T12:29:11.095Z,23.82
2023-04-15T12:34:20.184Z,23.72
2023-04-15T12:39:29.281Z,23.49
2023-04-15T12:44:34.650Z,23.91
2023-04-15T12:49:41.862Z,24.31
2023-04-15T12:54:49.155Z,24.43
2023-04-15T12:59:56.429Z,24.07
2023-04-15T13:05:03.650Z,24.92
2023-04-15T13:10:10.964Z,24.32
2023-04-15T13:15:18.703Z,23.99
2023-04-15T13:20:25.950Z,24.16
2023-04-15T13:25:33.191Z,24.65
2023-04-15T13:30:40.509Z,24.35
2023-04-15T13:35:47.692Z,24.12
2023-04-15T13:40:55.153Z,24.58
2023-04-15T13:46:02.524Z,24.66
2023-04-15T13:51:12.970Z,25.06
2023-04-15T13:56:20.250Z,24.50
2023-04-15T14:01:27.551Z,24.39
2023-04-15T14:06:34.744Z,23.98
2023-04-15T14:11:42.173Z,25.19
2023-04-15T14:16:49.534Z,24.90
2023-04-15T14:21:56.769Z,24.88
2023-04-15T14:27:06.019Z,24.84
2023-04-15T14:32:14.404Z,24.81
2023-04-15T14:37:20.726Z,24.35
2023-04-15T14:42:28.266Z,24.33
2023-04-15T14:47:35.533Z,24.26
2023-04-15T14:52:42.816Z,23.99
2023-04-15T14:57:50.309Z,24.17
2023-04-15T15:02:57.636Z,24.10
2023-04-15T15:08:04.849Z,24.11
2023-04-15T15:13:12.252Z,23.96
2023-04-15T15:18:19.794Z,24.02
2023-04-15T15:23:27.729Z,23.98
2023-04-15T15:28:35.068Z,23.99
2023-04-15T15:33:42.236Z,24.09
2023-04-15T15:38:49.456Z,24.05
2023-04-15T15:43:56.705Z,24.17
2023-04-15T15:49:04.038Z,24.11
2023-04-15T15:54:11.127Z,24.16
2023-04-15T15:59:18.344Z,24.21
2023-04-15T16:04:25.768Z,24.29
2023-04-15T16:09:33.134Z,24.24
2023-04-15T16:14:40.525Z,24.31
2023-04-15T16:19:58.001Z,24.29
2023-04-15T16:24:54.940Z,24.35
2023-04-15T16:30:02.199Z,24.36
2023-04-15T16:35:09.628Z,24.31
2023-04-15T16:40:17.251Z,24.40
2023-04-15T16:45:27.932Z,24.40
2023-04-15T16:50:35.433Z,24.50
2023-04-15T16:55:43.071Z,24.48
2023-04-15T17:00:50.485Z,24.48
2023-04-15T17:05:57.644Z,24.74
2023-04-15T17:11:04.850Z,24.69
2023-04-15T17:16:12.139Z,24.77
2023-04-15T17:21:19.591Z,24.55
2023-04-15T17:26:27.011Z,24.54
2023-04-15T17:31:34.484Z,25.40
2023-04-15T17:36:41.718Z,26.65
2023-04-15T17:41:49.426Z,27.33
2023-04-15T17:46:57.205Z,27.21
2023-04-15T17:52:04.475Z,27.88
2023-04-15T17:57:11.966Z,27.34
2023-04-15T18:02:19.817Z,27.11
2023-04-15T18:07:27.061Z,27.15
2023-04-15T18:12:34.702Z,27.10
2023-04-15T18:17:42.351Z,27.03
2023-04-15T18:22:50.036Z,27.07
2023-04-15T18:27:57.539Z,27.02
2023-04-15T18:33:05.189Z,26.97
2023-04-15T18:38:12.708Z,26.92
2023-04-15T18:43:20.396Z,26.93
2023-04-15T18:48:28.072Z,26.93
2023-04-15T18:53:35.723Z,27.18
2023-04-15T18:59:26.317Z,27.07
2023-04-15T19:03:51.181Z,26.99
2023-04-15T19:08:58.595Z,26.88
2023-04-15T19:14:05.826Z,26.92
2023-04-15T19:19:13.478Z,26.83
2023-04-15T19:24:20.816Z,26.85
2023-04-15T19:29:29.131Z,26.93
2023-04-15T19:34:36.952Z,27.03
2023-04-15T19:39:44.573Z,27.06
2023-04-15T19:44:52.279Z,27.11
2023-04-15T19:50:00.035Z,27.08
2023-04-15T19:55:07.722Z,27.13
2023-04-15T20:00:15.332Z,27.08
2023-04-15T20:05:22.997Z,27.01
2023-04-15T20:10:30.558Z,26.90
2023-04-15T20:15:38.294Z,26.87
2023-04-15T20:20:45.910Z,26.83
2023-04-15T20:25:53.495Z,26.73
2023-04-15T20:31:01.246Z,26.82
2023-04-15T20:36:09.890Z,26.81
2023-04-15T20:41:17.585Z,26.82
2023-04-15T20:46:27.176Z,26.68
2023-04-15T20:51:32.523Z,26.66
2023-04-15T20:56:40.216Z,26.60
2023-04-15T21:01:47.670Z,26.44
2023-04-15T21:06:56.099Z,26.33
2023-04-15T21:12:03.327Z,26.12
2023-04-15T21:17:11.374Z,26.15
2023-04-15T21:22:17.902Z,26.19
2023-04-15T21:27:25.085Z,26.14
2023-04-15T21:32:32.277Z,26.15
2023-04-15T21:37:39.550Z,26.21
2023-04-15T21:42:47.343Z,26.00
2023-04-15T21:48:05.845Z,25.97
2023-04-15T21:53:01.910Z,25.86
2023-04-15T21:58:09.252Z,25.94
2023-04-15T22:03:16.611Z,25.88
2023-04-15T22:08:23.794Z,25.96
2023-04-15T22:13:31.030Z,26.04
2023-04-15T22:18:38.323Z,26.17
2023-04-15T22:23:45.586Z,26.13
2023-04-15T22:28:52.830Z,26.02
2023-04-15T22:34:00.176Z,25.96
2023-04-15T22:39:07.899Z,25.92
2023-04-15T22:44:14.924Z,25.90
2023-04-15T22:49:22.121Z,25.85
2023-04-15T22:54:29.863Z,25.73
2023-04-15T22:59:37.133Z,25.62
2023-04-15T23:04:44.589Z,25.58
2023-04-15T23:09:56.021Z,25.66
2023-04-15T23:15:04.180Z,25.78
2023-04-15T23:20:46.622Z,25.61
2023-04-15T23:26:17.086Z,25.56
2023-04-15T23:31:12.444Z,25.65
2023-04-15T23:36:35.444Z,25.62
2023-04-15T23:42:03.928Z,25.68
2023-04-15T23:46:56.053Z,25.88
2023-04-15T23:52:12.144Z,25.93
2023-04-15T23:57:40.816Z,26.17
